createdAt,value
2019-06-01T00:00:34.373Z,18.86
2019-06-01T00:01:14.933Z,18.84
2019-06-01T00:01:55.501Z,18.92
2019-06-01T00:02:36.075Z,18.93
2019-06-01T00:03:16.643Z,18.88
2019-06-01T00:03:57.199Z,18.84
2019-06-01T00:04:38.619Z,18.93
2019-06-01T00:05:18.325Z,18.88
2019-06-01T00:05:58.883Z,18.89
2019-06-01T00:06:40.671Z,18.9
2019-06-01T00:07:20.023Z,18.9
2019-06-01T00:08:00.582Z,18.88
2019-06-01T00:08:41.433Z,18.95
2019-06-01T00:09:21.951Z,18.83
2019-06-01T00:10:02.517Z,18.88
2019-06-01T00:10:43.097Z,18.84
2019-06-01T00:11:23.652Z,18.93
2019-06-01T00:12:04.218Z,18.92
2019-06-01T00:12:45.310Z,18.89
2019-06-01T00:13:25.352Z,18.92
2019-06-01T00:14:05.926Z,18.88
2019-06-01T00:14:48.047Z,18.88
2019-06-01T00:15:27.055Z,18.9
2019-06-01T00:16:07.640Z,18.92
2019-06-01T00:16:48.216Z,18.84
2019-06-01T00:17:28.771Z,18.92
2019-06-01T00:18:09.337Z,18.88
2019-06-01T00:18:50.348Z,18.86
2019-06-01T00:19:30.545Z,18.84
2019-06-01T00:20:11.064Z,18.84
2019-06-01T00:20:52.714Z,18.89
2019-06-01T00:21:32.206Z,18.83
2019-06-01T00:22:12.765Z,18.78
2019-06-01T00:22:53.328Z,18.89
2019-06-01T00:23:33.914Z,18.88
2019-06-01T00:24:14.475Z,18.86
2019-06-01T00:24:55.061Z,18.86
2019-06-01T00:25:35.614Z,18.88
2019-06-01T00:26:16.175Z,18.83
2019-06-01T00:26:56.739Z,18.77
2019-06-01T00:27:37.299Z,18.8
2019-06-01T00:28:17.880Z,18.75
2019-06-01T00:28:58.438Z,18.9
2019-06-01T00:29:39.009Z,18.86
2019-06-01T00:30:26.839Z,18.84
2019-06-01T00:31:00.140Z,18.86
2019-06-01T00:31:41.169Z,18.8
2019-06-01T00:32:21.286Z,18.83
2019-06-01T00:33:01.860Z,18.84
2019-06-01T00:33:43.307Z,18.77
2019-06-01T00:34:22.996Z,18.89
2019-06-01T00:35:03.552Z,18.75
2019-06-01T00:35:45.305Z,18.78
2019-06-01T00:36:24.675Z,18.75
2019-06-01T00:37:05.242Z,18.71
2019-06-01T00:37:45.812Z,18.78
2019-06-01T00:38:26.386Z,18.75
2019-06-01T00:39:06.947Z,18.77
2019-06-01T00:42:05.760Z,18.74
2019-06-01T00:42:46.339Z,18.65
2019-06-01T00:43:26.886Z,18.75
2019-06-01T00:44:07.453Z,18.74
2019-06-01T00:44:48.474Z,18.77
2019-06-01T00:45:28.585Z,18.7
2019-06-01T00:46:09.141Z,18.75
2019-06-01T00:46:50.753Z,18.74
2019-06-01T00:47:30.263Z,18.7
2019-06-01T00:48:10.827Z,18.73
2019-06-01T00:48:52.079Z,18.71
2019-06-01T00:49:31.951Z,18.7
2019-06-01T00:50:12.511Z,18.68
2019-06-01T00:50:53.249Z,18.66
2019-06-01T00:51:33.644Z,18.63
2019-06-01T00:52:14.219Z,18.66
2019-06-01T00:52:54.791Z,18.65
2019-06-01T00:53:35.360Z,18.63
2019-06-01T08:05:26.546Z,23.18
2019-06-01T08:06:07.494Z,23.2
2019-06-01T08:06:49.069Z,23.27
2019-06-01T08:07:29.281Z,23.23
2019-06-01T08:08:09.736Z,23.28
2019-06-01T08:08:50.659Z,23.12
2019-06-01T08:09:31.650Z,23.17
2019-06-01T08:10:12.305Z,23.12
2019-06-01T08:10:53.060Z,23.12
2019-06-01T08:11:35.142Z,23.17
2019-06-01T08:12:14.764Z,23.12
2019-06-01T08:12:55.518Z,23.13
2019-06-01T08:13:36.231Z,23.13
2019-06-01T08:14:16.873Z,23.1
2019-06-01T08:14:57.473Z,23.17
2019-06-01T08:15:38.324Z,23.24
2019-06-01T08:16:19.072Z,23.21
2019-06-01T08:16:59.960Z,23.32
2019-06-01T08:17:41.551Z,23.2
2019-06-01T08:18:22.225Z,23.32
2019-06-01T08:19:02.993Z,23.4
2019-06-01T08:19:43.605Z,23.36
2019-06-01T08:20:24.189Z,23.34
2019-06-01T08:21:04.747Z,23.47
2019-06-01T08:21:45.405Z,23.39
2019-06-01T08:22:26.144Z,23.47
2019-06-01T08:23:07.118Z,23.51
2019-06-01T08:23:47.748Z,23.58
2019-06-01T08:24:28.442Z,23.55
2019-06-01T08:25:09.463Z,23.51
2019-06-01T08:25:50.319Z,23.62
2019-06-01T08:26:31.182Z,23.62
2019-06-01T08:27:11.744Z,23.56
2019-06-01T08:27:52.329Z,23.55
2019-06-01T08:28:32.906Z,23.58
2019-06-01T08:29:13.541Z,23.55
2019-06-01T08:32:12.520Z,23.69
2019-06-01T08:32:53.099Z,23.71
2019-06-01T08:33:34.982Z,23.65
2019-06-01T08:34:15.244Z,23.62
2019-06-01T08:35:07.656Z,23.58
2019-06-01T08:35:36.561Z,23.63
2019-06-01T08:36:17.212Z,23.59
2019-06-01T08:36:58.196Z,23.63
2019-06-01T08:37:38.864Z,23.54
2019-06-01T08:38:19.442Z,23.59
2019-06-01T08:39:00.036Z,23.62
2019-06-01T08:39:40.714Z,23.65
2019-06-01T08:40:21.287Z,23.65
2019-06-01T08:41:01.892Z,23.73
2019-06-01T08:41:42.507Z,23.76
2019-06-01T08:42:23.404Z,23.74
2019-06-01T08:43:03.725Z,23.74
2019-06-01T08:43:44.299Z,23.76
2019-06-01T08:44:25.411Z,23.8
2019-06-01T08:45:05.497Z,23.8
2019-06-01T08:45:46.103Z,23.91
2019-06-01T08:46:27.638Z,23.86
2019-06-01T08:47:07.297Z,23.95
2019-06-01T08:47:47.865Z,23.86
2019-06-01T08:48:29.792Z,23.87
2019-06-01T08:49:09.029Z,23.84
2019-06-01T08:49:49.630Z,23.92
2019-06-01T08:50:30.311Z,23.8
2019-06-01T08:51:11.228Z,23.83
2019-06-01T08:51:51.886Z,23.77
2019-06-01T08:52:32.473Z,23.77
2019-06-01T08:53:13.070Z,23.81
2019-06-01T08:53:53.705Z,23.83
2019-06-01T08:54:34.481Z,23.87
2019-06-01T08:55:15.028Z,23.8
2019-06-01T08:55:55.634Z,23.86
2019-06-01T08:56:36.235Z,24.02
2019-06-01T08:57:16.907Z,24.01
2019-06-01T08:57:57.500Z,24.02
2019-06-01T08:58:38.180Z,24.01
2019-06-01T08:59:18.900Z,24.01
2019-06-01T08:59:59.527Z,24.01
2019-06-01T09:00:40.129Z,24.03
2019-06-01T09:01:20.982Z,24.02
2019-06-01T09:02:02.129Z,24.02
2019-06-01T09:02:43.841Z,24.08
2019-06-01T09:03:25.854Z,24.11
2019-06-01T09:04:08.415Z,24.11
2019-06-01T09:04:49.894Z,23.92
2019-06-01T09:05:31.517Z,23.96
2019-06-01T09:06:13.162Z,23.98
2019-06-01T09:06:56.328Z,23.99
2019-06-01T09:07:38.354Z,24.02
2019-06-01T09:08:23.678Z,24.01
2019-06-01T09:09:02.944Z,23.98
2019-06-01T09:09:43.776Z,24.01
2019-06-01T09:10:25.258Z,23.96
2019-06-01T09:11:05.680Z,23.96
2019-06-01T09:11:46.872Z,24.01
2019-06-01T09:12:29.141Z,24.06
2019-06-01T09:13:08.603Z,23.96
2019-06-01T09:13:52.111Z,24.01
2019-06-01T09:14:31.240Z,23.95
2019-06-01T09:15:10.795Z,23.95
2019-06-01T09:15:51.558Z,23.93
2019-06-01T09:16:33.475Z,23.98
2019-06-01T09:17:12.920Z,23.98
2019-06-01T09:17:53.707Z,23.96
2019-06-01T09:18:35.682Z,23.98
2019-06-01T09:19:14.968Z,23.96
2019-06-01T09:19:56.100Z,24.06
2019-06-01T09:20:38.896Z,23.95
2019-06-01T09:21:18.057Z,23.96
2019-06-01T09:21:58.842Z,24.11
2019-06-01T09:22:40.164Z,23.99
2019-06-01T09:23:21.290Z,24.05
2019-06-01T09:24:01.973Z,23.98
2019-06-01T09:24:42.670Z,24.02
2019-06-01T09:25:23.668Z,24.01
2019-06-01T09:26:04.397Z,24.05
2019-06-01T09:26:45.195Z,24.01
2019-06-01T09:27:25.997Z,23.92
2019-06-01T09:28:06.647Z,23.98
2019-06-01T09:28:47.556Z,24.05
2019-06-01T09:29:28.389Z,23.99
2019-06-01T09:30:09.539Z,24.08
2019-06-01T09:30:52.557Z,24.03
2019-06-01T09:31:34.428Z,23.95
2019-06-01T09:32:17.145Z,24.08
2019-06-01T09:33:01.948Z,24.02
2019-06-01T09:33:44.812Z,24.11
2019-06-01T09:34:28.305Z,24.11
2019-06-01T09:35:08.001Z,24.06
2019-06-01T09:35:55.718Z,24.11
2019-06-01T09:36:32.428Z,24.14
2019-06-01T09:37:12.785Z,24.14
2019-06-01T09:37:53.693Z,24.14
2019-06-01T09:38:35.476Z,24.16
2019-06-01T09:39:15.232Z,24.1
2019-06-01T09:39:56.042Z,24.11
2019-06-01T09:40:37.342Z,24.16
2019-06-01T09:41:17.813Z,24.13
2019-06-01T09:41:58.602Z,24.17
2019-06-01T09:42:39.241Z,24.18
2019-06-01T09:43:20.005Z,24.17
2019-06-01T09:44:00.669Z,24.18
2019-06-01T09:44:41.477Z,24.18
2019-06-01T09:45:22.374Z,24.11
2019-06-01T09:46:03.130Z,24.05
2019-06-01T09:46:44.044Z,24.24
2019-06-01T09:47:24.702Z,24.16
2019-06-01T09:48:05.304Z,24.14
2019-06-01T09:48:45.965Z,24.21
2019-06-01T09:49:27.238Z,24.06
2019-06-01T09:50:07.265Z,24.16
2019-06-01T09:50:48.032Z,24.03
2019-06-01T09:51:29.438Z,24.17
2019-06-01T09:52:12.122Z,24.11
2019-06-01T09:52:49.950Z,24.06
2019-06-01T09:53:31.077Z,24.06
2019-06-01T09:54:11.351Z,24.05
2019-06-01T09:54:52.010Z,24.1
2019-06-01T09:55:33.230Z,24.08
2019-06-01T09:56:13.219Z,24.06
2019-06-01T09:56:54.004Z,24.06
2019-06-01T09:57:34.667Z,23.98
2019-06-01T09:58:15.377Z,23.98
2019-06-01T09:58:56.057Z,24.06
2019-06-01T09:59:36.651Z,23.98
2019-06-01T10:00:17.229Z,24.06
2019-06-01T10:00:58.058Z,24.06
2019-06-01T10:01:38.998Z,24.08
2019-06-01T10:02:19.586Z,24.05
2019-06-01T10:03:00.400Z,24.06
2019-06-01T10:03:40.997Z,24.05
2019-06-01T10:04:21.987Z,24.06
2019-06-01T10:05:02.703Z,24.14
2019-06-01T10:05:58.410Z,24.05
2019-06-01T10:06:23.989Z,24.08
2019-06-01T10:07:04.820Z,24.08
2019-06-01T10:07:45.346Z,24.06
2019-06-01T10:08:26.027Z,24.13
2019-06-01T10:09:06.723Z,24.1
2019-06-01T10:09:47.450Z,24.1
2019-06-01T10:10:28.038Z,24.1
2019-06-01T10:11:08.630Z,24.06
2019-06-01T10:11:49.373Z,24.13
2019-06-01T10:12:29.955Z,24.13
2019-06-01T10:13:10.654Z,24.17
2019-06-01T10:13:51.430Z,24.11
2019-06-01T10:14:32.183Z,24.18
2019-06-01T10:15:12.726Z,24.17
2019-06-01T10:15:53.373Z,24.17
2019-06-01T10:16:34.508Z,24.1
2019-06-01T10:17:14.665Z,24.17
2019-06-01T10:17:55.293Z,24.18
2019-06-01T10:18:37.027Z,24.2
2019-06-01T10:19:17.101Z,24.17
2019-06-01T10:19:58.433Z,24.21
2019-06-01T10:20:41.349Z,24.26
2019-06-01T10:21:21.953Z,24.29
2019-06-01T10:22:02.669Z,24.23
2019-06-01T10:22:43.764Z,24.23
2019-06-01T10:23:24.749Z,24.28
2019-06-01T10:24:06.100Z,24.21
2019-06-01T10:24:47.199Z,24.21
2019-06-01T10:25:28.560Z,24.13
2019-06-01T10:26:09.330Z,24.17
2019-06-01T10:26:50.129Z,24.2
2019-06-01T10:27:32.431Z,24.16
2019-06-01T10:28:12.596Z,24.1
2019-06-01T10:28:53.972Z,24.08
2019-06-01T10:29:35.118Z,24.16
2019-06-01T10:30:16.843Z,24.14
2019-06-01T10:30:59.105Z,24.16
2019-06-01T10:31:41.504Z,24.13
2019-06-01T10:32:20.827Z,24.16
2019-06-01T10:33:02.519Z,24.21
2019-06-01T10:33:44.364Z,24.21
2019-06-01T10:34:27.335Z,24.17
2019-06-01T10:35:09.738Z,24.2
2019-06-01T10:35:51.559Z,24.11
2019-06-01T10:36:34.010Z,24.18
2019-06-01T10:37:16.096Z,24.16
2019-06-01T10:37:58.554Z,24.18
2019-06-01T10:38:39.412Z,24.21
2019-06-01T10:39:19.922Z,24.21
2019-06-01T10:40:00.460Z,24.17
2019-06-01T10:40:41.782Z,24.21
2019-06-01T10:41:22.309Z,24.18
2019-06-01T10:42:02.889Z,24.24
2019-06-01T10:42:43.558Z,24.26
2019-06-01T10:43:24.562Z,24.33
2019-06-01T10:44:05.156Z,24.3
2019-06-01T10:44:46.081Z,24.3
2019-06-01T10:45:26.507Z,24.3
2019-06-01T10:46:07.081Z,24.33
2019-06-01T10:46:47.680Z,24.32
2019-06-01T10:47:28.350Z,24.26
2019-06-01T10:48:09.053Z,24.28
2019-06-01T10:48:49.747Z,24.28
2019-06-01T10:49:30.352Z,24.26
2019-06-01T10:50:10.962Z,24.29
2019-06-01T10:50:51.587Z,24.29
2019-06-01T10:51:32.230Z,24.28
2019-06-01T10:52:12.845Z,24.24
2019-06-01T10:52:53.665Z,24.21
2019-06-01T10:53:34.774Z,24.2
2019-06-01T10:54:14.886Z,24.21
2019-06-01T10:54:55.641Z,24.2
2019-06-01T10:55:36.271Z,24.18
2019-06-01T10:56:16.928Z,24.26
2019-06-01T10:56:57.549Z,24.18
2019-06-01T10:57:38.472Z,24.16
2019-06-01T10:58:18.757Z,24.18
2019-06-01T10:59:00.592Z,24.18
2019-06-01T10:59:40.520Z,24.18
2019-06-01T11:00:36.990Z,24.16
2019-06-01T11:01:01.215Z,24.17
2019-06-01T11:01:42.711Z,24.18
2019-06-01T11:02:22.582Z,24.11
2019-06-01T11:03:03.401Z,24.13
2019-06-01T11:03:44.095Z,24.18
2019-06-01T11:04:24.695Z,24.16
2019-06-01T11:05:05.448Z,24.2
2019-06-01T11:05:46.077Z,24.13
2019-06-01T11:06:36.566Z,24.13
2019-06-01T11:07:07.445Z,24.05
2019-06-01T11:07:48.035Z,24.18
2019-06-01T11:08:28.650Z,24.16
2019-06-01T11:09:09.256Z,24.16
2019-06-01T11:09:49.945Z,24.17
2019-06-01T11:10:30.595Z,24.18
2019-06-01T11:11:11.292Z,24.2
2019-06-01T11:11:51.893Z,24.16
2019-06-01T11:12:32.950Z,24.21
2019-06-01T11:13:13.131Z,24.18
2019-06-01T11:13:53.738Z,24.32
2019-06-01T11:14:34.834Z,24.21
2019-06-01T11:15:15.010Z,24.2
2019-06-01T11:15:55.618Z,24.21
2019-06-01T11:16:37.261Z,24.21
2019-06-01T11:17:16.953Z,24.26
2019-06-01T11:17:57.705Z,24.28
2019-06-01T11:18:39.542Z,24.28
2019-06-01T11:19:18.921Z,24.28
2019-06-01T11:19:59.711Z,24.28
2019-06-01T11:20:41.409Z,24.23
2019-06-01T11:21:20.913Z,24.3
2019-06-01T11:22:01.586Z,24.3
2019-06-01T11:22:43.588Z,24.33
2019-06-01T11:23:23.066Z,24.3
2019-06-01T11:24:03.674Z,24.28
2019-06-01T11:24:44.311Z,24.35
2019-06-01T11:25:24.913Z,24.36
2019-06-01T11:26:05.635Z,24.47
2019-06-01T11:26:46.426Z,24.45
2019-06-01T11:27:27.073Z,24.48
2019-06-01T11:28:07.698Z,24.45
2019-06-01T11:28:48.470Z,24.47
2019-06-01T11:29:29.058Z,24.48
2019-06-01T11:30:09.734Z,24.45
2019-06-01T11:30:50.394Z,24.57
2019-06-01T11:31:30.971Z,24.54
2019-06-01T11:32:11.662Z,24.47
2019-06-01T11:32:52.300Z,24.53
2019-06-01T11:33:34.051Z,24.45
2019-06-01T11:34:13.588Z,24.45
2019-06-01T11:34:54.185Z,24.4
2019-06-01T11:35:34.977Z,24.58
2019-06-01T11:36:15.461Z,24.55
2019-06-01T11:37:04.773Z,24.45
2019-06-01T11:37:36.730Z,24.48
2019-06-01T11:38:17.306Z,24.47
2019-06-01T11:38:57.921Z,24.53
2019-06-01T11:39:38.700Z,24.55
2019-06-01T11:40:19.512Z,24.53
2019-06-01T11:41:00.114Z,24.55
2019-06-01T11:41:40.810Z,24.6
2019-06-01T11:42:21.496Z,24.58
2019-06-01T11:43:02.137Z,24.6
2019-06-01T11:43:42.797Z,24.58
2019-06-01T11:44:23.442Z,24.61
2019-06-01T11:45:03.978Z,24.6
2019-06-01T11:45:45.196Z,24.57
2019-06-01T11:46:25.208Z,24.57
2019-06-01T11:47:05.838Z,24.66
2019-06-01T11:47:46.522Z,24.6
2019-06-01T11:48:27.184Z,24.63
2019-06-01T11:49:07.710Z,24.6
2019-06-01T11:49:48.303Z,24.66
2019-06-01T11:50:29.056Z,24.63
2019-06-01T11:51:09.787Z,24.63
2019-06-01T11:51:50.553Z,24.61
2019-06-01T11:52:31.157Z,24.68
2019-06-01T11:53:11.814Z,24.73
2019-06-01T11:56:11.235Z,24.86
2019-06-01T11:56:51.949Z,24.86
2019-06-01T11:57:32.534Z,24.91
2019-06-01T11:58:13.253Z,24.86
2019-06-01T11:58:53.844Z,24.93
2019-06-01T11:59:35.271Z,24.98
2019-06-01T12:00:15.011Z,24.93
2019-06-01T12:00:55.678Z,24.86
2019-06-01T12:01:37.673Z,24.86
2019-06-01T12:02:17.017Z,24.86
2019-06-01T12:02:58.093Z,24.91
2019-06-01T12:03:39.646Z,24.81
2019-06-01T12:04:19.802Z,24.81
2019-06-01T12:05:00.413Z,24.84
2019-06-01T12:05:42.074Z,24.85
2019-06-01T12:06:21.711Z,24.85
2019-06-01T12:07:16.714Z,24.7
2019-06-01T12:07:43.889Z,24.73
2019-06-01T12:08:23.502Z,24.76
2019-06-01T12:09:04.167Z,24.77
2019-06-01T12:09:46.034Z,24.73
2019-06-01T12:10:25.974Z,24.66
2019-06-01T12:11:06.574Z,24.85
2019-06-01T12:11:47.235Z,24.77
2019-06-01T12:12:27.849Z,24.78
2019-06-01T12:13:08.501Z,24.77
2019-06-01T12:13:49.124Z,24.85
2019-06-01T12:14:29.646Z,24.88
2019-06-01T12:15:10.218Z,24.84
2019-06-01T12:15:50.815Z,24.88
2019-06-01T12:16:31.669Z,24.98
2019-06-01T12:17:12.391Z,24.93
2019-06-01T12:17:52.984Z,25.06
2019-06-01T12:18:33.569Z,25.06
2019-06-01T12:19:14.172Z,24.99
2019-06-01T12:19:54.779Z,25.06
2019-06-01T12:20:36.548Z,25.03
2019-06-01T12:21:16.435Z,24.96
2019-06-01T12:21:57.750Z,25.08
2019-06-01T12:22:38.822Z,25.08
2019-06-01T12:23:19.064Z,25.01
2019-06-01T12:23:59.853Z,25.07
2019-06-01T12:24:40.936Z,25.11
2019-06-01T12:25:21.206Z,25.06
2019-06-01T12:26:02.111Z,25.07
2019-06-01T12:26:43.466Z,25.07
2019-06-01T12:27:23.409Z,25.01
2019-06-01T12:28:04.024Z,25.1
2019-06-01T12:28:45.789Z,25.08
2019-06-01T12:29:25.332Z,25.14
2019-06-01T12:30:06.264Z,25.08
2019-06-01T12:30:47.904Z,25.13
2019-06-01T12:31:28.161Z,25.1
2019-06-01T12:32:08.786Z,25.1
2019-06-01T12:32:49.421Z,25.11
2019-06-01T12:33:30.094Z,25.16
2019-06-01T12:34:10.703Z,25.16
2019-06-01T12:34:51.660Z,25.13
2019-06-01T12:35:32.372Z,25.14
2019-06-01T12:36:12.998Z,25.17
2019-06-01T12:36:53.822Z,25.21
2019-06-01T12:37:52.769Z,25.16
2019-06-01T12:40:48.908Z,25.14
2019-06-01T12:41:29.681Z,25.18
2019-06-01T12:42:10.863Z,25.13
2019-06-01T12:42:51.945Z,25.13
2019-06-01T12:43:32.450Z,25.21
2019-06-01T12:44:13.145Z,25.18
2019-06-01T12:44:53.910Z,25.26
2019-06-01T12:45:34.804Z,25.21
2019-06-01T12:46:15.593Z,25.33
2019-06-01T12:46:56.411Z,25.25
2019-06-01T12:47:37.131Z,25.35
2019-06-01T12:48:18.043Z,25.32
2019-06-01T12:48:58.710Z,25.31
2019-06-01T12:49:40.132Z,25.32
2019-06-01T12:50:20.115Z,25.29
2019-06-01T12:51:00.709Z,25.36
2019-06-01T12:51:42.500Z,25.35
2019-06-01T12:52:22.335Z,25.46
2019-06-01T12:53:02.979Z,25.38
2019-06-01T12:53:44.449Z,25.44
2019-06-01T12:54:24.458Z,25.38
2019-06-01T12:55:05.155Z,25.46
2019-06-01T12:55:46.730Z,25.47
2019-06-01T12:56:26.663Z,25.32
2019-06-01T12:57:07.321Z,25.33
2019-06-01T12:57:49.228Z,25.33
2019-06-01T12:58:29.162Z,25.28
2019-06-01T12:59:09.759Z,25.21
2019-06-01T12:59:51.183Z,25.28
2019-06-01T13:00:31.113Z,25.23
2019-06-01T13:01:11.825Z,25.22
2019-06-01T13:01:53.070Z,25.23
2019-06-01T13:02:33.790Z,25.25
2019-06-01T13:03:14.513Z,25.18
2019-06-01T13:03:55.255Z,25.28
2019-06-01T13:04:35.859Z,25.25
2019-06-01T13:05:16.496Z,25.25
2019-06-01T13:05:57.103Z,25.33
2019-06-01T13:06:37.734Z,25.33
2019-06-01T13:07:18.322Z,25.36
2019-06-01T13:08:02.489Z,25.36
2019-06-01T13:08:40.636Z,25.36
2019-06-01T13:09:20.199Z,25.4
2019-06-01T13:10:01.036Z,25.4
2019-06-01T13:10:42.974Z,25.4
2019-06-01T13:11:22.492Z,25.36
2019-06-01T13:12:03.134Z,25.36
2019-06-01T13:12:43.704Z,25.35
2019-06-01T13:13:24.328Z,25.4
2019-06-01T13:14:04.891Z,25.36
2019-06-01T13:14:45.441Z,25.4
2019-06-01T13:17:45.242Z,25.36
2019-06-01T13:18:25.068Z,25.44
2019-06-01T13:19:05.708Z,25.46
2019-06-01T13:19:47.323Z,25.48
2019-06-01T13:20:27.036Z,25.47
2019-06-01T13:21:07.640Z,25.44
2019-06-01T13:21:49.971Z,25.48
2019-06-01T13:22:28.813Z,25.51
2019-06-01T13:23:09.420Z,25.51
2019-06-01T13:23:50.004Z,25.48
2019-06-01T13:24:30.726Z,25.58
2019-06-01T13:25:11.358Z,25.6
2019-06-01T13:25:51.941Z,25.51
2019-06-01T13:26:32.553Z,25.5
2019-06-01T13:27:13.168Z,25.58
2019-06-01T13:27:53.731Z,25.58
2019-06-01T13:28:37.839Z,25.53
2019-06-01T13:29:14.883Z,25.55
2019-06-01T13:29:55.495Z,25.63
2019-06-01T13:30:36.075Z,25.6
2019-06-01T13:31:16.693Z,25.66
2019-06-01T13:31:57.286Z,25.68
2019-06-01T13:32:37.898Z,25.65
2019-06-01T13:33:18.522Z,25.68
2019-06-01T13:33:59.263Z,25.73
2019-06-01T13:34:39.908Z,25.72
2019-06-01T13:35:20.658Z,25.7
2019-06-01T13:36:01.266Z,25.68
2019-06-01T13:36:42.476Z,25.77
2019-06-01T13:37:22.556Z,25.78
2019-06-01T13:38:11.482Z,25.81
2019-06-01T13:38:44.467Z,25.83
2019-06-01T13:39:24.330Z,25.8
2019-06-01T13:40:05.080Z,25.83
2019-06-01T13:40:46.841Z,25.85
2019-06-01T13:41:26.310Z,25.85
2019-06-01T13:42:07.082Z,25.83
2019-06-01T13:42:47.661Z,25.9
2019-06-01T13:43:28.236Z,25.8
2019-06-01T13:44:08.864Z,25.85
2019-06-01T13:44:49.573Z,25.84
2019-06-01T13:45:30.158Z,25.85
2019-06-01T13:46:10.887Z,25.9
2019-06-01T13:46:51.481Z,25.88
2019-06-01T13:47:32.045Z,25.9
2019-06-01T13:48:12.659Z,25.88
2019-06-01T13:48:54.272Z,25.9
2019-06-01T13:49:33.934Z,25.91
2019-06-01T13:50:14.645Z,25.9
2019-06-01T13:50:55.234Z,25.9
2019-06-01T13:51:35.957Z,25.85
2019-06-01T13:52:16.596Z,25.91
2019-06-01T13:52:57.274Z,25.9
2019-06-01T13:53:38.033Z,25.93
2019-06-01T13:54:18.598Z,25.9
2019-06-01T13:54:59.186Z,25.9
2019-06-01T13:55:39.818Z,25.91
2019-06-01T13:56:20.419Z,25.87
2019-06-01T13:57:01.135Z,25.87
2019-06-01T13:57:41.843Z,25.96
2019-06-01T13:58:22.395Z,25.93
2019-06-01T13:59:02.992Z,25.91
2019-06-01T13:59:44.541Z,25.9
2019-06-01T14:00:30.005Z,25.93
2019-06-01T14:01:05.210Z,25.93
2019-06-01T14:01:46.865Z,25.95
2019-06-01T14:02:26.656Z,25.85
2019-06-01T14:03:07.318Z,25.87
2019-06-01T14:03:49.341Z,25.87
2019-06-01T14:04:28.782Z,25.87
2019-06-01T14:05:09.595Z,25.93
2019-06-01T14:05:50.945Z,25.87
2019-06-01T14:06:30.748Z,25.93
2019-06-01T14:07:11.320Z,25.93
2019-06-01T14:07:51.933Z,25.88
2019-06-01T14:08:32.523Z,25.88
2019-06-01T14:11:31.468Z,25.91
2019-06-01T14:12:12.117Z,25.88
2019-06-01T14:12:53.443Z,25.87
2019-06-01T14:13:33.869Z,25.9
2019-06-01T14:14:14.459Z,25.96
2019-06-01T14:14:55.578Z,25.87
2019-06-01T14:15:35.846Z,25.93
2019-06-01T14:16:16.444Z,25.98
2019-06-01T14:16:57.051Z,25.95
2019-06-01T14:17:37.642Z,25.91
2019-06-01T14:18:18.305Z,25.99
2019-06-01T14:18:58.841Z,26.02
2019-06-01T14:19:39.422Z,25.93
2019-06-01T14:20:20.003Z,25.98
2019-06-01T14:21:00.615Z,26
2019-06-01T14:21:41.178Z,25.98
2019-06-01T14:22:21.740Z,25.99
2019-06-01T14:23:02.346Z,25.98
2019-06-01T14:23:42.911Z,25.99
2019-06-01T14:24:23.541Z,26.02
2019-06-01T14:25:12.256Z,25.98
2019-06-01T14:25:45.878Z,26.03
2019-06-01T14:26:25.793Z,26.06
2019-06-01T14:27:06.446Z,26.05
2019-06-01T14:27:48.133Z,26.05
2019-06-01T14:28:27.753Z,26.05
2019-06-01T14:29:08.348Z,26.05
2019-06-01T14:29:50.216Z,26.02
2019-06-01T14:30:30.754Z,26.02
2019-06-01T14:31:11.602Z,26.02
2019-06-01T14:31:53.925Z,26.07
2019-06-01T14:32:33.035Z,26.13
2019-06-01T14:33:13.756Z,26.13
2019-06-01T14:33:54.804Z,26.06
2019-06-01T14:34:34.949Z,26.07
2019-06-01T14:35:15.688Z,26.05
2019-06-01T14:35:56.637Z,26.13
2019-06-01T14:36:36.819Z,26.19
2019-06-01T14:37:17.490Z,26.23
2019-06-01T14:37:58.357Z,26.23
2019-06-01T14:38:46.788Z,26.21
2019-06-01T14:39:19.668Z,26.19
2019-06-01T14:40:00.317Z,26.19
2019-06-01T14:40:41.570Z,26.13
2019-06-01T14:41:21.547Z,26.16
2019-06-01T14:42:02.143Z,26.23
2019-06-01T14:42:42.710Z,26.15
2019-06-01T14:43:23.306Z,26.18
2019-06-01T14:44:03.863Z,26.19
2019-06-01T14:44:44.770Z,26.19
2019-06-01T14:45:25.306Z,26.21
2019-06-01T14:46:05.935Z,26.22
2019-06-01T14:46:54.716Z,26.18
2019-06-01T14:47:27.239Z,26.19
2019-06-01T14:48:07.916Z,26.19
2019-06-01T14:48:49.339Z,26.18
2019-06-01T14:49:29.174Z,26.16
2019-06-01T14:50:09.837Z,26.09
2019-06-01T14:50:51.615Z,26.07
2019-06-01T14:51:31.185Z,26.15
2019-06-01T14:54:45.280Z,26.05
2019-06-01T14:55:25.939Z,26.05
2019-06-01T14:56:06.501Z,26.09
2019-06-01T14:56:47.594Z,26.18
2019-06-01T14:57:27.791Z,26.18
2019-06-01T14:58:08.463Z,26.16
2019-06-01T14:58:49.877Z,26.13
2019-06-01T14:59:29.856Z,26.16
2019-06-01T15:00:10.465Z,26.19
2019-06-01T15:00:52.568Z,26.19
2019-06-01T15:01:33.186Z,26.22
2019-06-01T15:02:12.384Z,26.09
2019-06-01T15:02:54.299Z,26.22
2019-06-01T15:03:33.699Z,26.18
2019-06-01T15:04:14.250Z,26.21
2019-06-01T15:04:56.398Z,26.09
2019-06-01T15:05:36.798Z,26.19
2019-06-01T15:06:20.688Z,26.06
2019-06-01T15:06:58.549Z,26.09
2019-06-01T15:07:38.901Z,26.15
2019-06-01T15:08:19.727Z,26.23
2019-06-01T15:09:14.926Z,26.15
2019-06-01T15:09:40.893Z,26.18
2019-06-01T15:10:21.528Z,26.21
2019-06-01T15:11:02.297Z,26.15
2019-06-01T15:11:42.922Z,26.09
2019-06-01T15:12:23.575Z,26.06
2019-06-01T15:13:04.206Z,26.15
2019-06-01T15:13:44.928Z,26.18
2019-06-01T15:15:32.479Z,26.18
2019-06-01T15:16:13.052Z,26.16
2019-06-01T15:16:53.939Z,26.07
2019-06-01T15:17:34.186Z,26.09
2019-06-01T15:18:14.757Z,26.13
2019-06-01T15:18:56.063Z,26.05
2019-06-01T15:19:35.882Z,26.16
2019-06-01T15:20:16.450Z,26.13
2019-06-01T15:20:57.898Z,26.07
2019-06-01T15:21:37.613Z,26.07
2019-06-01T15:22:18.179Z,25.99
2019-06-01T15:22:58.748Z,26.02
2019-06-01T15:23:39.304Z,26
2019-06-01T15:24:19.880Z,26.02
2019-06-01T15:25:00.444Z,26.02
2019-06-01T15:25:41.015Z,25.98
2019-06-01T15:26:21.576Z,26.09
2019-06-01T15:27:03.109Z,26.03
2019-06-01T15:27:42.715Z,25.99
2019-06-01T15:28:23.278Z,26.05
2019-06-01T15:29:03.827Z,26.05
2019-06-01T15:29:44.394Z,26.02
2019-06-01T15:30:24.975Z,26.1
2019-06-01T15:31:05.542Z,25.96
2019-06-01T15:31:46.106Z,26.02
2019-06-01T15:32:26.891Z,25.99
2019-06-01T15:33:07.271Z,26.02
2019-06-01T15:33:47.851Z,25.99
2019-06-01T15:34:28.405Z,25.99
2019-06-01T15:35:08.974Z,25.99
2019-06-01T15:35:49.576Z,25.95
2019-06-01T15:36:30.122Z,25.91
2019-06-01T15:37:10.728Z,25.99
2019-06-01T15:37:53.511Z,25.99
2019-06-01T15:38:31.850Z,25.9
2019-06-01T15:39:23.923Z,25.95
2019-06-01T15:39:52.992Z,25.98
2019-06-01T15:40:33.545Z,25.9
2019-06-01T15:41:14.117Z,25.88
2019-06-01T15:41:55.177Z,25.85
2019-06-01T15:42:35.245Z,25.91
2019-06-01T15:43:15.813Z,25.85
2019-06-01T15:43:57.042Z,25.83
2019-06-01T15:44:36.936Z,25.85
2019-06-01T15:45:17.499Z,25.83
2019-06-01T15:45:58.072Z,25.83
2019-06-01T15:46:38.653Z,25.81
2019-06-01T15:47:19.205Z,25.81
2019-06-01T15:47:59.893Z,25.7
2019-06-01T15:48:40.361Z,25.73
2019-06-01T15:49:20.917Z,25.68
2019-06-01T15:50:02.581Z,25.7
2019-06-01T15:50:42.168Z,25.7
2019-06-01T15:51:23.181Z,25.7
2019-06-01T15:52:03.816Z,25.83
2019-06-01T15:52:44.446Z,25.83
2019-06-01T15:53:25.091Z,25.85
2019-06-01T15:54:05.765Z,25.88
2019-06-01T15:54:46.490Z,25.93
2019-06-01T15:55:27.056Z,25.88
2019-06-01T15:56:07.632Z,25.85
2019-06-01T15:56:48.197Z,25.91
2019-06-01T15:57:28.771Z,25.87
2019-06-01T15:58:09.327Z,25.88
2019-06-01T15:58:53.430Z,25.85
2019-06-01T15:59:30.563Z,25.85
2019-06-01T16:00:11.088Z,25.83
2019-06-01T16:00:52.683Z,25.81
2019-06-01T16:01:32.224Z,25.83
2019-06-01T16:02:12.831Z,25.81
2019-06-01T16:02:54.695Z,25.78
2019-06-01T16:03:34.548Z,25.8
2019-06-01T16:04:14.533Z,25.83
2019-06-01T16:04:55.121Z,25.77
2019-06-01T16:05:36.156Z,25.81
2019-06-01T16:06:16.787Z,25.81
2019-06-01T16:06:59.238Z,25.83
2019-06-01T16:07:38.943Z,25.88
2019-06-01T16:08:19.512Z,25.83
2019-06-01T16:09:00.083Z,25.7
2019-06-01T16:09:42.868Z,25.81
2019-06-01T16:10:21.242Z,25.83
2019-06-01T16:11:04.617Z,25.87
2019-06-01T16:11:42.416Z,25.81
2019-06-01T16:12:22.949Z,25.83
2019-06-01T16:13:04.446Z,25.87
2019-06-01T16:13:44.076Z,25.88
2019-06-01T16:14:24.690Z,25.88
2019-06-01T16:15:05.247Z,25.85
2019-06-01T16:15:45.820Z,25.81